Time;durP1;ratioP1;P1;durP2;ratioP2;P2;SDS_P1;SDS_P2;PMS_P1;PMS_P2;Temp;Humidity;BMP_temperature;BMP_pressure;BME280_temperature;BME280_humidity;BME280_pressure;Samples;Min_cycle;Max_cycle;Signal;HPM_P1;HPM_P2
2022/04/16 00:00:06;;;;;;;28.55;21.73;;;;;;;;;;5071818;28;20101;-81
2022/04/16 00:02:32;;;;;;;28.52;20.40;;;;;;;;;;5072210;28;20193;-81
2022/04/16 00:04:58;;;;;;;29.55;22.42;;;;;;;;;;5088677;28;20438;-81
2022/04/16 00:07:24;;;;;;;30.95;22.88;;;;;;;;;;5088501;28;20115;-80
2022/04/16 00:09:50;;;;;;;29.65;22.42;;;;;;;;;;5072363;28;20410;-81
2022/04/16 00:12:17;;;;;;;27.45;21.27;;;;;;;;;;5071651;28;20340;-81
2022/04/16 00:14:43;;;;;;;27.77;22.27;;;;;;;;;;5072042;28;20036;-81
2022/04/16 00:17:09;;;;;;;29.65;21.38;;;;;;;;;;5088490;28;20036;-80
2022/04/16 00:19:36;;;;;;;26.63;21.55;;;;;;;;;;5055569;28;20051;-81
2022/04/16 00:22:07;;;;;;;30.60;22.70;;;;;;;;;;5072037;28;20498;-80
2022/04/16 00:24:33;;;;;;;28.63;20.35;;;;;;;;;;5072009;28;20055;-80
2022/04/16 00:27:00;;;;;;;27.90;20.73;;;;;;;;;;5087938;28;20048;-80
2022/04/16 00:29:26;;;;;;;28.13;20.40;;;;;;;;;;5071997;28;20046;-80
2022/04/16 00:31:53;;;;;;;26.27;20.35;;;;;;;;;;5090023;28;20521;-81
2022/04/16 00:34:19;;;;;;;26.50;19.85;;;;;;;;;;5091688;28;20406;-80
2022/04/16 00:36:47;;;;;;;28.77;20.77;;;;;;;;;;5091444;28;20044;-80
2022/04/16 00:39:13;;;;;;;32.40;21.23;;;;;;;;;;5091603;28;20043;-81
2022/04/16 00:41:39;;;;;;;28.83;20.15;;;;;;;;;;5091147;28;20518;-81
2022/04/16 00:44:06;;;;;;;27.95;20.95;;;;;;;;;;5091311;28;20288;-81
2022/04/16 00:46:36;;;;;;;28.23;20.85;;;;;;;;;;5074386;28;20117;-81
2022/04/16 00:49:03;;;;;;;27.35;20.75;;;;;;;;;;5091535;28;20177;-81
2022/04/16 00:51:30;;;;;;;27.55;20.23;;;;;;;;;;5074336;28;20032;-81
2022/04/16 00:53:56;;;;;;;28.40;20.35;;;;;;;;;;5091145;28;20406;-81
2022/04/16 00:56:23;;;;;;;27.98;20.30;;;;;;;;;;5074042;28;20071;-81
2022/04/16 00:58:49;;;;;;;28.33;20.33;;;;;;;;;;5091073;28;20044;-80
2022/04/16 01:01:15;;;;;;;27.45;19.67;;;;;;;;;;5074222;28;20519;-81
2022/04/16 01:03:43;;;;;;;25.35;19.17;;;;;;;;;;5074702;28;20513;-81
2022/04/16 01:06:15;;;;;;;26.40;19.35;;;;;;;;;;5074545;28;20399;-81
2022/04/16 01:08:45;;;;;;;28.40;19.35;;;;;;;;;;5090865;28;20043;-81
2022/04/16 01:11:12;;;;;;;28.48;19.38;;;;;;;;;;5074191;28;20032;-80
2022/04/16 01:13:38;;;;;;;27.13;18.92;;;;;;;;;;5073883;28;20039;-80
2022/04/16 01:16:07;;;;;;;25.70;19.73;;;;;;;;;;5073607;28;20414;-80
2022/04/16 01:18:35;;;;;;;27.33;18.73;;;;;;;;;;5090793;28;20146;-80
2022/04/16 01:21:02;;;;;;;25.27;19.17;;;;;;;;;;5074335;28;20105;-80
2022/04/16 01:23:30;;;;;;;24.15;17.70;;;;;;;;;;5073791;28;20049;-80
2022/04/16 01:25:56;;;;;;;25.77;19.13;;;;;;;;;;5073631;28;20089;-81
2022/04/16 01:28:23;;;;;;;24.38;18.15;;;;;;;;;;5090791;28;20552;-81
2022/04/16 01:30:49;;;;;;;27.60;19.00;;;;;;;;;;5074090;28;20047;-81
2022/04/16 01:33:17;;;;;;;27.80;20.05;;;;;;;;;;5087063;28;20052;-80
2022/04/16 01:35:44;;;;;;;25.25;19.25;;;;;;;;;;5070307;28;20071;-81
2022/04/16 01:38:10;;;;;;;25.70;18.67;;;;;;;;;;5087574;28;20044;-80
2022/04/16 01:40:36;;;;;;;26.75;18.85;;;;;;;;;;5070546;28;20444;-80
2022/04/16 01:43:02;;;;;;;27.92;19.63;;;;;;;;;;5070507;28;20114;-80
2022/04/16 01:45:29;;;;;;;26.88;19.73;;;;;;;;;;5070690;28;20032;-81
2022/04/16 01:47:56;;;;;;;24.67;18.70;;;;;;;;;;5070301;28;20047;-81
2022/04/16 01:50:23;;;;;;;26.75;19.30;;;;;;;;;;5070324;28;20101;-80
2022/04/16 01:52:49;;;;;;;29.27;19.50;;;;;;;;;;5073111;28;20525;-80
2022/04/16 01:55:16;;;;;;;26.42;19.20;;;;;;;;;;5085061;28;20219;-80
2022/04/16 01:57:42;;;;;;;25.73;19.73;;;;;;;;;;5091203;28;20033;-80
2022/04/16 02:00:10;;;;;;;25.63;19.67;;;;;;;;;;5074271;28;20503;-80
2022/04/16 02:02:36;;;;;;;26.17;18.40;;;;;;;;;;5074424;28;20467;-80
2022/04/16 02:05:04;;;;;;;26.45;18.88;;;;;;;;;;5073915;28;20032;-80
2022/04/16 02:07:30;;;;;;;28.73;21.10;;;;;;;;;;5073976;28;20048;-80
2022/04/16 02:09:56;;;;;;;30.10;20.65;;;;;;;;;;5073901;28;20089;-80
2022/04/16 02:12:23;;;;;;;29.25;19.33;;;;;;;;;;5090972;28;20069;-80
2022/04/16 02:14:49;;;;;;;32.50;21.70;;;;;;;;;;5074606;28;20048;-80
2022/04/16 02:17:15;;;;;;;31.48;22.63;;;;;;;;;;5090850;28;20031;-80
2022/04/16 02:19:41;;;;;;;31.92;22.33;;;;;;;;;;5090829;28;20075;-80
2022/04/16 02:22:08;;;;;;;32.70;22.48;;;;;;;;;;5090976;28;20631;-80
2022/04/16 02:24:34;;;;;;;32.33;22.90;;;;;;;;;;5073993;28;20487;-80
2022/04/16 02:27:00;;;;;;;35.47;24.00;;;;;;;;;;5090399;28;20453;-81
2022/04/16 02:29:26;;;;;;;38.20;26.58;;;;;;;;;;5090669;28;20036;-81
2022/04/16 02:31:53;;;;;;;39.95;27.00;;;;;;;;;;5092667;28;20479;-80
2022/04/16 02:34:20;;;;;;;42.33;27.13;;;;;;;;;;5077318;28;20414;-80
2022/04/16 02:36:47;;;;;;;46.80;28.70;;;;;;;;;;5093786;28;20511;-80
2022/04/16 02:39:14;;;;;;;41.72;29.00;;;;;;;;;;5093301;28;20122;-81
2022/04/16 02:41:41;;;;;;;42.30;28.70;;;;;;;;;;5076697;28;20035;-80
2022/04/16 02:47:05;;;;;;;44.15;28.95;;;;;;;;;;5093814;28;20490;-80
2022/04/16 02:47:05;;;;;;;44.92;29.60;;;;;;;;;;5093222;28;20127;-80
2022/04/16 02:49:33;;;;;;;49.38;30.95;;;;;;;;;;5093748;28;20406;-81
2022/04/16 02:52:00;;;;;;;46.88;29.48;;;;;;;;;;5093542;28;20049;-80
2022/04/16 02:54:26;;;;;;;48.08;29.35;;;;;;;;;;5093696;28;20058;-80
2022/04/16 02:56:52;;;;;;;42.42;28.75;;;;;;;;;;5076613;28;20117;-80
2022/04/16 02:59:18;;;;;;;45.63;29.40;;;;;;;;;;5076677;28;20371;-81
2022/04/16 03:01:44;;;;;;;43.38;29.77;;;;;;;;;;5093237;28;20050;-81
2022/04/16 03:04:11;;;;;;;47.33;30.08;;;;;;;;;;5076815;28;20075;-81
2022/04/16 03:06:37;;;;;;;45.63;30.15;;;;;;;;;;5076395;28;20035;-81
2022/04/16 03:09:03;;;;;;;39.95;27.75;;;;;;;;;;5072595;28;20035;-81
2022/04/16 03:11:29;;;;;;;52.25;33.13;;;;;;;;;;5076597;28;20556;-81
2022/04/16 03:13:55;;;;;;;43.85;27.58;;;;;;;;;;5076666;28;20040;-81
2022/04/16 03:19:06;;;;;;;53.80;33.33;;;;;;;;;;5093404;28;20043;-81
2022/04/16 03:21:33;;;;;;;47.47;30.42;;;;;;;;;;5093075;28;20125;-81
2022/04/16 03:23:59;;;;;;;42.95;29.27;;;;;;;;;;5093440;28;20043;-81
2022/04/16 03:26:25;;;;;;;43.63;29.38;;;;;;;;;;5076067;28;20042;-80
2022/04/16 03:28:51;;;;;;;45.10;29.55;;;;;;;;;;5092901;28;20062;-80
2022/04/16 03:31:17;;;;;;;47.20;29.55;;;;;;;;;;5092628;28;20043;-79
2022/04/16 03:33:43;;;;;;;51.95;33.47;;;;;;;;;;5089353;28;20411;-81
2022/04/16 03:36:09;;;;;;;51.28;32.67;;;;;;;;;;5089490;28;20044;-80
2022/04/16 03:38:36;;;;;;;52.70;34.03;;;;;;;;;;5089194;28;20128;-81
2022/04/16 03:41:02;;;;;;;50.65;33.38;;;;;;;;;;5089596;28;20038;-80
2022/04/16 03:43:29;;;;;;;47.08;30.75;;;;;;;;;;5089263;28;20137;-81
2022/04/16 03:45:56;;;;;;;53.42;35.15;;;;;;;;;;5072665;28;20519;-79
2022/04/16 03:48:22;;;;;;;52.83;34.80;;;;;;;;;;5072704;28;20043;-81
2022/04/16 03:50:48;;;;;;;52.85;34.80;;;;;;;;;;5072150;28;20047;-80
2022/04/16 03:53:14;;;;;;;51.00;33.65;;;;;;;;;;5088868;28;20040;-81
2022/04/16 04:01:12;;;;;;;50.53;33.00;;;;;;;;;;5088815;28;20051;-80
2022/04/16 04:03:39;;;;;;;53.47;36.47;;;;;;;;;;5088862;28;20119;-81
2022/04/16 04:06:05;;;;;;;56.45;37.53;;;;;;;;;;5071828;28;20071;-81
2022/04/16 04:08:33;;;;;;;53.30;34.25;;;;;;;;;;5089171;28;20446;-80
2022/04/16 04:10:59;;;;;;;54.90;36.17;;;;;;;;;;5071980;28;20213;-81
2022/04/16 04:13:26;;;;;;;55.83;37.97;;;;;;;;;;5071910;28;20479;-81
2022/04/16 04:15:52;;;;;;;55.83;38.03;;;;;;;;;;5071038;28;20146;-81
2022/04/16 04:18:18;;;;;;;56.70;38.08;;;;;;;;;;5072040;28;20040;-81
2022/04/16 04:20:45;;;;;;;51.92;37.58;;;;;;;;;;5072202;28;20036;-81
2022/04/16 04:23:11;;;;;;;54.38;36.78;;;;;;;;;;5086582;28;20491;-81
2022/04/16 04:25:37;;;;;;;52.45;34.97;;;;;;;;;;5071610;28;20427;-81
2022/04/16 04:28:03;;;;;;;52.25;35.95;;;;;;;;;;5071343;28;20032;-82
2022/04/16 04:30:30;;;;;;;53.95;36.72;;;;;;;;;;5088340;28;20043;-81
2022/04/16 04:32:58;;;;;;;58.22;38.70;;;;;;;;;;5071079;28;20139;-82
2022/04/16 04:35:25;;;;;;;57.15;38.33;;;;;;;;;;5071179;28;20047;-82
2022/04/16 04:37:51;;;;;;;53.72;36.72;;;;;;;;;;5071093;28;20039;-82
2022/04/16 04:40:21;;;;;;;47.75;34.88;;;;;;;;;;5071362;28;20180;-82
2022/04/16 04:42:47;;;;;;;46.70;32.53;;;;;;;;;;5088316;28;20278;-81
2022/04/16 04:45:14;;;;;;;43.50;30.67;;;;;;;;;;5087957;28;20040;-81
2022/04/16 04:47:41;;;;;;;41.90;30.30;;;;;;;;;;5071305;28;20120;-81
2022/04/16 04:50:08;;;;;;;45.35;32.50;;;;;;;;;;5088276;28;20036;-82
2022/04/16 04:52:36;;;;;;;39.40;28.08;;;;;;;;;;5071091;28;20407;-83
2022/04/16 04:55:02;;;;;;;37.08;26.63;;;;;;;;;;5088036;28;20039;-83
2022/04/16 04:57:29;;;;;;;34.90;25.17;;;;;;;;;;5087617;28;20039;-83
2022/04/16 04:59:55;;;;;;;37.25;25.80;;;;;;;;;;5071092;28;20044;-82
2022/04/16 05:02:21;;;;;;;37.85;25.45;;;;;;;;;;5071173;28;20047;-82
2022/04/16 05:04:48;;;;;;;31.83;23.50;;;;;;;;;;5070932;28;20071;-81
2022/04/16 05:07:14;;;;;;;32.03;23.17;;;;;;;;;;5087668;28;20044;-82
2022/04/16 05:09:40;;;;;;;33.63;24.70;;;;;;;;;;5071149;28;20075;-82
2022/04/16 05:12:07;;;;;;;34.25;23.90;;;;;;;;;;5070852;28;20032;-82
2022/04/16 05:14:33;;;;;;;34.63;24.27;;;;;;;;;;5070611;28;20032;-81
2022/04/16 05:16:59;;;;;;;31.63;22.27;;;;;;;;;;5071282;28;20047;-80
2022/04/16 05:19:25;;;;;;;32.25;22.20;;;;;;;;;;5087723;28;20047;-81
2022/04/16 05:21:51;;;;;;;26.60;19.42;;;;;;;;;;5070940;28;20044;-80
2022/04/16 05:24:17;;;;;;;26.30;18.23;;;;;;;;;;5070806;28;20138;-81
2022/04/16 05:26:43;;;;;;;25.88;18.77;;;;;;;;;;5071451;28;20158;-82
2022/04/16 05:29:10;;;;;;;24.25;17.80;;;;;;;;;;5074995;28;20040;-82
2022/04/16 05:31:36;;;;;;;25.33;17.73;;;;;;;;;;5074993;28;20036;-82
2022/04/16 05:34:21;;;;;;;23.35;16.15;;;;;;;;;;5074857;28;20070;-81
2022/04/16 05:36:48;;;;;;;22.15;14.40;;;;;;;;;;5074826;28;20515;-81
2022/04/16 05:39:14;;;;;;;24.45;16.80;;;;;;;;;;5079715;28;20051;-82
2022/04/16 05:41:41;;;;;;;23.08;15.75;;;;;;;;;;5071169;28;20040;-81
2022/04/16 05:44:08;;;;;;;24.33;16.42;;;;;;;;;;5074945;28;20192;-81
2022/04/16 05:46:34;;;;;;;25.98;16.40;;;;;;;;;;5074465;28;20040;-82
2022/04/16 05:49:00;;;;;;;25.70;16.67;;;;;;;;;;5074944;28;20491;-82
2022/04/16 05:51:27;;;;;;;22.73;16.27;;;;;;;;;;5074624;28;20028;-82
2022/04/16 05:53:53;;;;;;;24.17;16.80;;;;;;;;;;5074371;28;20062;-82
2022/04/16 05:56:20;;;;;;;24.30;17.02;;;;;;;;;;5074558;28;20098;-81
2022/04/16 05:58:46;;;;;;;23.67;17.10;;;;;;;;;;5074321;28;20075;-82
2022/04/16 06:01:12;;;;;;;24.52;17.75;;;;;;;;;;5074711;28;20078;-81
2022/04/16 06:03:42;;;;;;;26.27;17.25;;;;;;;;;;5074470;28;20036;-81
2022/04/16 06:06:09;;;;;;;21.60;16.30;;;;;;;;;;5074658;28;20127;-82
2022/04/16 06:08:36;;;;;;;23.17;15.50;;;;;;;;;;5074208;28;20032;-82
2022/04/16 06:11:03;;;;;;;22.48;16.45;;;;;;;;;;5073895;28;20036;-81
2022/04/16 06:13:32;;;;;;;21.55;15.60;;;;;;;;;;5074029;28;20498;-82
2022/04/16 06:16:01;;;;;;;23.95;16.08;;;;;;;;;;5074345;28;20044;-80
2022/04/16 06:18:28;;;;;;;23.25;15.48;;;;;;;;;;5074911;28;20075;-81
2022/04/16 06:20:56;;;;;;;21.80;14.38;;;;;;;;;;5074024;28;20100;-81
2022/04/16 06:23:22;;;;;;;21.73;14.30;;;;;;;;;;5074307;28;20032;-81
2022/04/16 06:25:49;;;;;;;21.63;14.40;;;;;;;;;;5073197;28;20088;-81
2022/04/16 06:28:15;;;;;;;20.88;13.55;;;;;;;;;;5073774;28;20398;-81
2022/04/16 06:30:41;;;;;;;21.65;14.40;;;;;;;;;;5073872;28;20398;-82
2022/04/16 06:33:07;;;;;;;19.77;14.18;;;;;;;;;;5073676;28;20181;-81
2022/04/16 06:35:34;;;;;;;20.52;13.80;;;;;;;;;;5073899;28;20039;-82
2022/04/16 06:38:00;;;;;;;20.25;13.43;;;;;;;;;;5073495;28;20040;-82
2022/04/16 06:40:26;;;;;;;18.75;11.88;;;;;;;;;;5073565;28;20346;-82
2022/04/16 06:42:52;;;;;;;17.10;11.30;;;;;;;;;;5090509;28;20082;-82
2022/04/16 06:45:19;;;;;;;17.27;11.73;;;;;;;;;;5073110;28;20039;-82
2022/04/16 06:47:45;;;;;;;16.40;10.95;;;;;;;;;;5073484;28;20535;-81
2022/04/16 06:50:11;;;;;;;17.65;11.23;;;;;;;;;;5073251;28;20085;-83
2022/04/16 06:52:37;;;;;;;18.80;11.10;;;;;;;;;;5090217;28;20082;-81
2022/04/16 06:55:05;;;;;;;15.05;9.95;;;;;;;;;;5073346;28;20074;-80
2022/04/16 06:57:31;;;;;;;15.32;9.75;;;;;;;;;;5090621;28;20128;-81
2022/04/16 06:59:57;;;;;;;14.63;8.55;;;;;;;;;;5073057;28;20040;-81
2022/04/16 07:02:23;;;;;;;13.52;8.50;;;;;;;;;;5073164;28;20228;-81
2022/04/16 07:04:49;;;;;;;15.95;9.20;;;;;;;;;;5073611;28;20493;-81
2022/04/16 07:07:15;;;;;;;11.43;7.60;;;;;;;;;;5090237;28;20476;-82
2022/04/16 07:09:42;;;;;;;12.48;7.45;;;;;;;;;;5073355;28;20036;-82
2022/04/16 07:12:09;;;;;;;10.93;6.75;;;;;;;;;;5072800;28;20115;-82
2022/04/16 07:14:36;;;;;;;12.60;7.50;;;;;;;;;;5073679;28;20032;-82
2022/04/16 07:17:02;;;;;;;11.68;7.05;;;;;;;;;;5072839;28;20048;-83
2022/04/16 07:19:32;;;;;;;11.82;6.78;;;;;;;;;;5072628;28;20047;-83
2022/04/16 07:21:58;;;;;;;11.90;7.47;;;;;;;;;;5073041;28;20506;-82
2022/04/16 07:24:25;;;;;;;13.75;7.57;;;;;;;;;;5056949;28;20530;-82
2022/04/16 07:26:53;;;;;;;12.25;7.05;;;;;;;;;;5089203;28;20133;-82
2022/04/16 07:29:20;;;;;;;13.68;8.80;;;;;;;;;;5072674;28;20521;-82
2022/04/16 07:31:47;;;;;;;15.13;8.93;;;;;;;;;;5090240;28;20097;-83
2022/04/16 07:34:13;;;;;;;15.02;9.48;;;;;;;;;;5076003;28;20046;-82
2022/04/16 07:36:39;;;;;;;18.05;10.23;;;;;;;;;;5075821;28;20513;-82
2022/04/16 07:39:06;;;;;;;18.65;11.52;;;;;;;;;;5075616;28;20050;-82
2022/04/16 07:41:32;;;;;;;16.38;11.30;;;;;;;;;;5075757;28;20042;-82
2022/04/16 07:44:03;;;;;;;17.70;11.65;;;;;;;;;;5076035;28;20050;-82
2022/04/16 07:46:29;;;;;;;17.48;11.73;;;;;;;;;;5074188;28;20048;-80
2022/04/16 07:48:58;;;;;;;18.13;10.43;;;;;;;;;;5073157;28;20417;-81
2022/04/16 07:51:25;;;;;;;16.50;10.98;;;;;;;;;;5095295;28;20031;-82
2022/04/16 07:53:52;;;;;;;13.68;9.38;;;;;;;;;;5093726;28;20031;-81
2022/04/16 07:56:19;;;;;;;16.58;10.60;;;;;;;;;;5108127;28;20494;-81
2022/04/16 07:58:45;;;;;;;15.18;9.75;;;;;;;;;;5102002;28;20055;-82
2022/04/16 08:01:11;;;;;;;13.65;9.05;;;;;;;;;;5076523;28;20039;-83
2022/04/16 08:03:38;;;;;;;15.02;8.68;;;;;;;;;;5076490;28;20047;-82
2022/04/16 08:06:04;;;;;;;12.77;8.05;;;;;;;;;;5078880;28;20075;-81
2022/04/16 08:08:30;;;;;;;14.40;8.57;;;;;;;;;;5076312;28;20036;-82
2022/04/16 08:10:57;;;;;;;15.15;9.15;;;;;;;;;;5074185;28;20039;-82
2022/04/16 08:13:24;;;;;;;12.43;7.15;;;;;;;;;;5077865;28;20031;-82
2022/04/16 08:15:51;;;;;;;12.23;6.88;;;;;;;;;;5090335;28;20062;-83
2022/04/16 08:18:17;;;;;;;12.93;7.20;;;;;;;;;;5067409;28;20122;-82
2022/04/16 08:20:45;;;;;;;12.65;6.75;;;;;;;;;;5092878;28;20134;-80
2022/04/16 08:23:11;;;;;;;12.13;7.13;;;;;;;;;;5092115;28;20347;-82
2022/04/16 08:28:04;;;;;;;10.65;6.30;;;;;;;;;;5092303;28;20039;-83
2022/04/16 08:30:31;;;;;;;10.20;6.03;;;;;;;;;;5089818;28;20370;-81
2022/04/16 08:32:57;;;;;;;10.52;6.40;;;;;;;;;;5080857;28;20058;-81
2022/04/16 08:35:48;;;;;;;11.15;5.85;;;;;;;;;;5070678;28;20046;-83
2022/04/16 08:38:16;;;;;;;9.85;6.07;;;;;;;;;;5070596;28;20051;-84
2022/04/16 08:40:43;;;;;;;10.27;5.40;;;;;;;;;;5079764;28;20039;-83
2022/04/16 08:43:09;;;;;;;10.85;5.55;;;;;;;;;;5083533;28;20603;-81
2022/04/16 08:45:37;;;;;;;10.00;5.30;;;;;;;;;;5081983;28;20046;-82
2022/04/16 08:48:03;;;;;;;9.00;4.78;;;;;;;;;;5093657;28;20036;-81
2022/04/16 08:50:30;;;;;;;9.57;5.55;;;;;;;;;;5072465;28;20036;-82
2022/04/16 08:52:58;;;;;;;9.40;4.78;;;;;;;;;;5074193;28;21298;-83
2022/04/16 08:55:24;;;;;;;7.97;4.20;;;;;;;;;;5076391;28;20037;-81
2022/04/16 08:57:53;;;;;;;8.43;4.57;;;;;;;;;;5069626;28;20566;-82
2022/04/16 09:00:19;;;;;;;9.23;4.60;;;;;;;;;;5087046;28;20485;-82
2022/04/16 09:02:53;;;;;;;7.28;4.03;;;;;;;;;;5070008;28;20071;-84
2022/04/16 09:05:20;;;;;;;8.73;4.50;;;;;;;;;;5053751;28;20049;-84
2022/04/16 09:07:48;;;;;;;8.05;4.20;;;;;;;;;;5066400;28;20035;-84
2022/04/16 09:10:14;;;;;;;7.00;4.10;;;;;;;;;;5089370;28;20047;-84
2022/04/16 09:12:40;;;;;;;8.55;5.00;;;;;;;;;;5069667;28;20036;-84
2022/04/16 09:15:08;;;;;;;7.55;3.92;;;;;;;;;;5053578;28;20491;-84
2022/04/16 09:17:34;;;;;;;7.55;4.00;;;;;;;;;;5053847;28;20391;-84
2022/04/16 09:20:00;;;;;;;7.15;3.80;;;;;;;;;;5060478;28;20098;-84
2022/04/16 09:22:30;;;;;;;7.80;4.18;;;;;;;;;;5070374;28;20441;-82
2022/04/16 09:24:56;;;;;;;6.05;2.70;;;;;;;;;;5053603;28;20044;-84
2022/04/16 09:27:23;;;;;;;6.10;2.97;;;;;;;;;;5065570;28;20689;-83
2022/04/16 09:29:49;;;;;;;7.35;3.13;;;;;;;;;;5071466;28;20040;-85
2022/04/16 09:32:23;;;;;;;5.45;2.47;;;;;;;;;;5070191;28;20080;-84
2022/04/16 09:34:49;;;;;;;5.33;2.63;;;;;;;;;;5071233;28;20043;-82
2022/04/16 09:37:15;;;;;;;4.88;2.70;;;;;;;;;;5087058;28;20437;-84
2022/04/16 09:39:42;;;;;;;5.93;2.45;;;;;;;;;;5073096;28;20056;-85
2022/04/16 09:42:08;;;;;;;6.70;2.72;;;;;;;;;;5072948;28;20047;-83
2022/04/16 09:44:34;;;;;;;5.45;2.55;;;;;;;;;;5073143;28;20044;-84
2022/04/16 09:47:01;;;;;;;7.28;2.58;;;;;;;;;;5068960;28;20037;-82
2022/04/16 09:49:27;;;;;;;4.90;2.38;;;;;;;;;;5065408;28;20131;-81
2022/04/16 09:51:53;;;;;;;11.02;2.17;;;;;;;;;;5068876;28;20036;-81
2022/04/16 09:54:21;;;;;;;4.28;1.95;;;;;;;;;;5069425;28;20090;-84
2022/04/16 09:56:48;;;;;;;3.72;1.80;;;;;;;;;;5072586;28;20142;-82
2022/04/16 09:59:14;;;;;;;4.82;1.77;;;;;;;;;;5072900;28;20118;-82
2022/04/16 10:01:48;;;;;;;3.85;1.73;;;;;;;;;;5081757;28;20414;-83
2022/04/16 10:04:16;;;;;;;3.25;1.40;;;;;;;;;;5064759;28;20040;-84
2022/04/16 10:06:42;;;;;;;2.28;1.20;;;;;;;;;;5071453;28;20043;-84
2022/04/16 10:09:22;;;;;;;3.50;1.13;;;;;;;;;;5072703;28;20066;-83
2022/04/16 10:14:53;;;;;;;2.40;1.10;;;;;;;;;;5092605;28;20040;-83
2022/04/16 10:17:23;;;;;;;3.85;1.60;;;;;;;;;;5076504;28;20431;-82
2022/04/16 10:20:07;;;;;;;2.40;1.33;;;;;;;;;;5071802;28;20121;-83
2022/04/16 10:22:34;;;;;;;2.22;1.10;;;;;;;;;;5081600;28;20036;-82
2022/04/16 10:25:00;;;;;;;2.22;1.20;;;;;;;;;;5073991;28;20039;-83
2022/04/16 10:27:28;;;;;;;2.58;1.23;;;;;;;;;;5074058;28;20376;-83
2022/04/16 10:29:54;;;;;;;2.85;1.00;;;;;;;;;;5073984;28;20044;-82
2022/04/16 10:32:20;;;;;;;2.53;1.10;;;;;;;;;;5090402;28;20056;-83
2022/04/16 10:34:47;;;;;;;2.08;1.10;;;;;;;;;;5080742;28;20045;-84
2022/04/16 10:37:21;;;;;;;2.25;1.10;;;;;;;;;;5072629;28;20037;-85
2022/04/16 10:39:49;;;;;;;2.58;1.10;;;;;;;;;;5075311;28;20118;-83
2022/04/16 10:42:16;;;;;;;3.83;1.27;;;;;;;;;;5072457;28;20119;-84
2022/04/16 10:44:47;;;;;;;3.42;1.00;;;;;;;;;;5072523;28;20033;-81
2022/04/16 10:47:17;;;;;;;1.88;0.80;;;;;;;;;;5057923;28;20044;-84
2022/04/16 10:49:44;;;;;;;2.45;1.00;;;;;;;;;;5073314;28;20072;-84
2022/04/16 10:52:19;;;;;;;2.97;0.90;;;;;;;;;;5075660;28;20036;-84
2022/04/16 10:54:47;;;;;;;2.80;1.00;;;;;;;;;;5075366;28;20434;-85
2022/04/16 10:57:21;;;;;;;3.38;1.20;;;;;;;;;;5074874;28;20662;-85
2022/04/16 10:59:50;;;;;;;1.55;1.08;;;;;;;;;;5075570;28;20036;-85
2022/04/16 11:02:23;;;;;;;1.80;1.00;;;;;;;;;;5092422;28;20040;-83
2022/04/16 11:05:00;;;;;;;2.88;1.58;;;;;;;;;;5090906;28;20032;-84
2022/04/16 11:07:27;;;;;;;2.92;1.40;;;;;;;;;;5072238;28;20490;-83
2022/04/16 11:09:59;;;;;;;2.58;1.48;;;;;;;;;;5092531;28;20075;-83
2022/04/16 11:12:26;;;;;;;2.58;1.02;;;;;;;;;;5075821;28;20502;-84
2022/04/16 11:14:53;;;;;;;2.05;1.30;;;;;;;;;;5075477;28;20510;-83
2022/04/16 11:17:19;;;;;;;1.58;1.00;;;;;;;;;;5075163;28;20072;-84
2022/04/16 11:20:08;;;;;;;2.95;1.10;;;;;;;;;;5075105;28;20040;-83
2022/04/16 11:22:34;;;;;;;1.65;1.00;;;;;;;;;;5075408;28;20100;-83
2022/04/16 11:25:01;;;;;;;2.10;1.30;;;;;;;;;;5063926;28;20047;-84
2022/04/16 11:34:14;;;;;;;1.92;1.10;;;;;;;;;;5088185;28;20040;-84
2022/04/16 11:35:59;;;;;;;3.78;1.20;;;;;;;;;;5082823;28;20077;-84
2022/04/16 11:38:29;;;;;;;3.97;1.52;;;;;;;;;;5074848;28;20040;-83
2022/04/16 11:41:04;;;;;;;2.88;1.40;;;;;;;;;;5073935;28;20051;-83
2022/04/16 11:43:30;;;;;;;3.63;1.65;;;;;;;;;;5072326;28;20042;-85
2022/04/16 11:45:56;;;;;;;4.30;1.40;;;;;;;;;;5071886;28;20036;-84
2022/04/16 11:48:23;;;;;;;3.97;1.30;;;;;;;;;;5071870;28;20036;-82
2022/04/16 11:50:50;;;;;;;4.70;1.20;;;;;;;;;;5072574;28;20046;-83
2022/04/16 11:53:16;;;;;;;7.03;1.33;;;;;;;;;;5073891;28;20427;-82
2022/04/16 11:55:49;;;;;;;2.20;1.00;;;;;;;;;;5072185;28;20487;-83
2022/04/16 11:58:15;;;;;;;2.28;1.10;;;;;;;;;;5071572;28;20042;-85
2022/04/16 12:00:54;;;;;;;2.08;1.00;;;;;;;;;;5071239;28;20138;-83
2022/04/16 12:03:20;;;;;;;3.60;0.98;;;;;;;;;;5071371;28;20040;-83
2022/04/16 12:05:50;;;;;;;3.17;1.45;;;;;;;;;;5068995;28;20036;-84
2022/04/16 12:08:20;;;;;;;3.08;1.35;;;;;;;;;;5074095;28;20036;-83
2022/04/16 12:10:46;;;;;;;2.20;1.25;;;;;;;;;;5073895;28;20548;-84
2022/04/16 12:13:13;;;;;;;3.75;1.40;;;;;;;;;;5086706;28;20044;-84
2022/04/16 12:15:43;;;;;;;2.22;1.67;;;;;;;;;;5070995;28;20491;-85
2022/04/16 12:18:11;;;;;;;3.10;1.40;;;;;;;;;;5070741;28;20039;-83
2022/04/16 12:20:46;;;;;;;3.88;1.48;;;;;;;;;;5069146;28;20036;-84
2022/04/16 12:23:19;;;;;;;2.80;1.50;;;;;;;;;;5069843;28;20043;-83
2022/04/16 12:25:45;;;;;;;3.08;1.85;;;;;;;;;;5068554;28;20568;-82
2022/04/16 12:28:12;;;;;;;3.58;1.77;;;;;;;;;;5069115;28;20044;-84
2022/04/16 12:30:39;;;;;;;3.03;1.65;;;;;;;;;;5070392;28;20086;-84
2022/04/16 12:33:06;;;;;;;3.58;1.38;;;;;;;;;;5065669;28;20052;-83
2022/04/16 12:35:36;;;;;;;3.85;1.52;;;;;;;;;;5078992;28;20036;-85
2022/04/16 12:38:03;;;;;;;3.10;1.67;;;;;;;;;;5063092;28;20426;-84
2022/04/16 12:40:29;;;;;;;2.20;1.30;;;;;;;;;;5070444;28;20040;-84
2022/04/16 12:42:56;;;;;;;3.45;1.40;;;;;;;;;;5070951;28;20376;-84
2022/04/16 12:45:23;;;;;;;1.83;1.30;;;;;;;;;;5061137;28;20589;-84
2022/04/16 12:47:50;;;;;;;2.00;1.20;;;;;;;;;;5068706;28;20040;-84
2022/04/16 12:50:16;;;;;;;2.72;1.30;;;;;;;;;;5064269;28;20043;-83
2022/04/16 12:52:42;;;;;;;2.92;1.48;;;;;;;;;;5065069;28;20041;-84
2022/04/16 12:55:09;;;;;;;2.42;1.40;;;;;;;;;;5071672;28;20036;-85
2022/04/16 12:57:35;;;;;;;2.20;1.20;;;;;;;;;;5066366;28;20036;-84
2022/04/16 13:00:01;;;;;;;3.30;1.33;;;;;;;;;;5064530;28;20037;-84
2022/04/16 13:02:27;;;;;;;2.60;1.25;;;;;;;;;;5080748;28;20038;-84
2022/04/16 13:04:54;;;;;;;3.58;1.27;;;;;;;;;;5070400;28;20047;-84
2022/04/16 13:07:22;;;;;;;2.22;1.25;;;;;;;;;;5069895;28;20046;-84
2022/04/16 13:09:48;;;;;;;1.75;1.13;;;;;;;;;;5070852;28;20040;-83
2022/04/16 13:12:16;;;;;;;2.47;1.33;;;;;;;;;;5070914;28;20379;-84
2022/04/16 13:14:46;;;;;;;3.60;1.40;;;;;;;;;;5070723;28;20079;-83
2022/04/16 13:17:12;;;;;;;4.20;1.45;;;;;;;;;;5088021;28;20602;-84
2022/04/16 13:19:38;;;;;;;3.17;1.17;;;;;;;;;;5070666;28;20040;-83
2022/04/16 13:22:05;;;;;;;4.93;1.30;;;;;;;;;;5087274;28;20081;-83
2022/04/16 13:24:31;;;;;;;3.33;1.50;;;;;;;;;;5070657;28;20149;-84
2022/04/16 13:26:58;;;;;;;3.30;1.20;;;;;;;;;;5070541;28;20046;-84
2022/04/16 13:29:24;;;;;;;2.72;1.17;;;;;;;;;;5070770;28;20178;-83
2022/04/16 13:31:50;;;;;;;3.60;1.33;;;;;;;;;;5072272;28;20675;-83
2022/04/16 13:34:17;;;;;;;3.03;1.00;;;;;;;;;;5090532;28;20046;-84
2022/04/16 13:36:43;;;;;;;1.75;1.00;;;;;;;;;;5073508;28;20052;-84
2022/04/16 13:41:38;;;;;;;3.80;1.10;;;;;;;;;;5073838;28;20049;-82
2022/04/16 13:41:55;;;;;;;3.15;1.15;;;;;;;;;;5090346;28;20039;-84
2022/04/16 13:44:21;;;;;;;2.58;1.02;;;;;;;;;;5090355;28;20089;-85
2022/04/16 13:46:47;;;;;;;1.65;1.08;;;;;;;;;;5073686;28;20071;-84
2022/04/16 13:49:13;;;;;;;2.90;1.13;;;;;;;;;;5077401;28;20040;-84
2022/04/16 13:51:39;;;;;;;2.08;1.27;;;;;;;;;;5077653;28;20239;-84
2022/04/16 13:54:09;;;;;;;3.03;1.55;;;;;;;;;;5077778;28;20118;-85
2022/04/16 13:56:36;;;;;;;3.22;1.40;;;;;;;;;;5077832;28;20526;-85
2022/04/16 13:59:02;;;;;;;2.28;1.30;;;;;;;;;;5077983;28;20062;-84
2022/04/16 14:01:28;;;;;;;2.50;1.25;;;;;;;;;;5093230;28;20387;-85
2022/04/16 14:03:55;;;;;;;1.83;1.23;;;;;;;;;;5089407;28;20046;-84
2022/04/16 14:06:21;;;;;;;2.88;1.40;;;;;;;;;;5075591;28;20036;-83
2022/04/16 14:08:48;;;;;;;3.15;1.13;;;;;;;;;;5076979;28;20039;-83
2022/04/16 14:11:15;;;;;;;2.42;1.40;;;;;;;;;;5085676;27;20038;-85
2022/04/16 14:13:44;;;;;;;3.20;1.48;;;;;;;;;;5087231;27;20031;-84
2022/04/16 14:16:11;;;;;;;2.53;1.15;;;;;;;;;;5079479;28;20039;-83
2022/04/16 14:18:38;;;;;;;2.65;1.58;;;;;;;;;;5079312;28;20129;-84
2022/04/16 14:21:07;;;;;;;2.58;1.40;;;;;;;;;;5093013;27;20136;-84
2022/04/16 14:23:34;;;;;;;2.75;1.45;;;;;;;;;;5085483;28;20035;-84
2022/04/16 14:26:02;;;;;;;1.95;1.33;;;;;;;;;;5079207;28;20043;-84
2022/04/16 14:28:28;;;;;;;2.00;1.27;;;;;;;;;;5078179;28;20050;-84
2022/04/16 14:30:54;;;;;;;4.20;1.23;;;;;;;;;;5102783;27;20063;-82
2022/04/16 14:33:20;;;;;;;4.80;1.30;;;;;;;;;;5096143;28;20101;-82
2022/04/16 14:35:47;;;;;;;2.50;1.40;;;;;;;;;;5081230;27;20414;-84
2022/04/16 14:38:13;;;;;;;4.72;1.70;;;;;;;;;;5096441;28;20448;-83
2022/04/16 14:40:43;;;;;;;4.97;1.60;;;;;;;;;;5079242;28;20040;-84
2022/04/16 14:43:11;;;;;;;2.88;1.30;;;;;;;;;;5073360;28;20044;-85
2022/04/16 14:45:41;;;;;;;3.88;1.40;;;;;;;;;;5097163;28;20097;-84
2022/04/16 14:48:08;;;;;;;2.88;1.30;;;;;;;;;;5111670;27;20502;-84